Time;durP1;ratioP1;P1;durP2;ratioP2;P2;SDS_P1;SDS_P2;PMS_P1;PMS_P2;Temp;Humidity;BMP_temperature;BMP_pressure;BME280_temperature;BME280_humidity;BME280_pressure;Samples;Min_cycle;Max_cycle;Signal;HPM_P1;HPM_P2
2022/05/05 00:00:58;;;;;;;13.25;6.03;;;9.70;99.90;;;;;;5028654;28;20401;-60
2022/05/05 00:03:26;;;;;;;13.35;5.57;;;9.70;99.90;;;;;;5027947;28;20055;-60
2022/05/05 00:05:54;;;;;;;12.55;5.85;;;9.70;99.90;;;;;;5016652;28;20049;-59
2022/05/05 00:08:24;;;;;;;13.75;6.65;;;9.70;99.90;;;;;;5028207;28;20409;-61
2022/05/05 00:16:27;;;;;;;16.63;7.15;;;9.80;99.90;;;;;;5027235;28;20052;-61
2022/05/05 00:18:54;;;;;;;19.27;7.82;;;9.80;99.90;;;;;;5026327;28;20053;-60
2022/05/05 00:21:22;;;;;;;17.67;7.35;;;9.80;99.90;;;;;;5026381;28;20045;-61
2022/05/05 00:23:50;;;;;;;13.48;7.47;;;9.80;99.90;;;;;;5027433;28;20068;-60
2022/05/05 00:26:17;;;;;;;12.90;7.15;;;9.80;99.90;;;;;;5017380;28;20044;-60
2022/05/05 00:28:45;;;;;;;18.90;7.85;;;9.70;99.90;;;;;;5025505;28;20045;-62
2022/05/05 00:31:13;;;;;;;11.85;7.43;;;9.70;99.90;;;;;;5010378;28;20477;-61
2022/05/05 00:33:40;;;;;;;22.20;8.60;;;9.70;99.90;;;;;;5028760;28;20054;-61
2022/05/05 00:36:08;;;;;;;18.20;7.93;;;9.70;99.90;;;;;;5026960;28;20616;-61
2022/05/05 00:38:36;;;;;;;14.05;7.60;;;9.70;99.90;;;;;;5026854;28;20048;-61
2022/05/05 00:41:03;;;;;;;18.25;6.95;;;9.70;99.90;;;;;;5013908;28;20041;-61
2022/05/05 00:43:33;;;;;;;24.20;8.50;;;9.70;99.90;;;;;;5057840;28;20045;-61
2022/05/05 00:46:02;;;;;;;15.23;7.32;;;9.60;99.90;;;;;;5025551;28;20049;-59
2022/05/05 00:48:30;;;;;;;16.35;7.07;;;9.60;99.90;;;;;;5025558;28;20049;-61
2022/05/05 00:50:58;;;;;;;11.60;5.65;;;9.60;99.90;;;;;;5027748;28;20060;-59
2022/05/05 00:53:27;;;;;;;14.50;7.22;;;9.60;99.90;;;;;;5026636;28;20048;-61
2022/05/05 00:55:58;;;;;;;12.68;6.65;;;9.60;99.90;;;;;;5025696;28;20054;-59
2022/05/05 00:58:27;;;;;;;12.77;6.53;;;9.60;99.90;;;;;;5025914;28;20049;-59
2022/05/05 01:00:55;;;;;;;12.68;6.13;;;9.60;99.90;;;;;;5026357;28;20045;-59
2022/05/05 01:03:23;;;;;;;15.88;6.22;;;9.60;99.90;;;;;;5023773;28;20048;-59
2022/05/05 01:05:51;;;;;;;16.33;7.32;;;9.60;99.90;;;;;;5027236;28;20037;-59
2022/05/05 01:08:19;;;;;;;13.20;5.72;;;9.60;99.90;;;;;;5027857;28;20049;-59
2022/05/05 01:10:46;;;;;;;16.98;6.55;;;9.50;99.90;;;;;;5019153;28;20041;-58
2022/05/05 01:13:14;;;;;;;14.05;6.28;;;9.60;99.90;;;;;;5027443;28;20047;-59
2022/05/05 01:15:43;;;;;;;9.52;5.93;;;9.60;99.90;;;;;;5025923;28;20064;-59
2022/05/05 01:18:11;;;;;;;13.60;7.57;;;9.50;99.90;;;;;;5026265;28;20041;-59
2022/05/05 01:20:47;;;;;;;11.20;5.82;;;9.60;99.90;;;;;;5025477;28;20050;-58
2022/05/05 01:23:16;;;;;;;11.48;6.50;;;9.60;99.90;;;;;;5018862;28;20041;-58
2022/05/05 01:28:32;;;;;;;13.40;5.85;;;9.60;99.90;;;;;;5011002;28;20057;-58
2022/05/05 01:31:02;;;;;;;13.98;6.25;;;9.50;99.90;;;;;;5022377;28;20045;-59
2022/05/05 01:33:30;;;;;;;17.02;6.10;;;9.50;99.90;;;;;;5024430;28;20060;-58
2022/05/05 01:35:59;;;;;;;9.63;5.20;;;9.50;99.90;;;;;;5021895;28;20038;-58
2022/05/05 01:38:38;;;;;;;13.20;5.80;;;9.60;99.90;;;;;;5017082;28;20037;-59
2022/05/05 01:41:07;;;;;;;11.77;5.40;;;9.60;99.90;;;;;;5027706;28;20501;-58
2022/05/05 01:43:35;;;;;;;11.73;5.93;;;9.60;99.90;;;;;;5026373;28;20052;-59
2022/05/05 01:46:04;;;;;;;14.50;6.30;;;9.60;99.90;;;;;;5025940;28;20057;-60
2022/05/05 01:48:32;;;;;;;12.65;5.82;;;9.60;99.90;;;;;;5025407;28;20053;-60
2022/05/05 01:51:01;;;;;;;13.00;6.10;;;9.60;99.90;;;;;;5022660;28;20052;-58
2022/05/05 01:53:36;;;;;;;15.98;6.72;;;9.60;99.90;;;;;;5018505;28;20128;-58
2022/05/05 01:56:13;;;;;;;15.90;6.00;;;9.60;99.90;;;;;;5027895;28;20056;-58
2022/05/05 01:58:42;;;;;;;14.50;5.93;;;9.60;99.90;;;;;;5023818;28;20374;-58
2022/05/05 02:01:11;;;;;;;16.47;7.03;;;9.70;99.90;;;;;;5024096;28;20045;-59
2022/05/05 02:03:39;;;;;;;13.25;6.50;;;9.70;99.90;;;;;;5017816;28;20854;-59
2022/05/05 02:06:07;;;;;;;12.43;5.68;;;9.70;99.90;;;;;;5027241;28;20046;-58
2022/05/05 02:08:36;;;;;;;12.25;5.30;;;9.70;99.90;;;;;;5023552;28;20053;-58
2022/05/05 02:11:04;;;;;;;12.35;6.35;;;9.80;99.90;;;;;;5028043;28;20037;-59
2022/05/05 02:13:32;;;;;;;11.43;6.13;;;9.80;99.90;;;;;;5028577;28;20060;-59
2022/05/05 02:16:00;;;;;;;11.63;5.45;;;9.80;99.90;;;;;;5033002;28;20176;-59
2022/05/05 02:18:28;;;;;;;19.35;6.65;;;9.80;99.90;;;;;;5034311;28;20056;-59
2022/05/05 02:20:56;;;;;;;10.25;6.32;;;9.70;99.90;;;;;;5033096;28;20046;-59
2022/05/05 02:23:23;;;;;;;16.25;6.20;;;9.80;99.90;;;;;;5032769;28;20049;-59
2022/05/05 02:25:52;;;;;;;10.55;6.18;;;9.80;99.90;;;;;;5034361;28;20050;-59
2022/05/05 02:28:20;;;;;;;11.98;5.82;;;9.80;99.90;;;;;;5032270;28;20337;-60
2022/05/05 02:30:48;;;;;;;12.07;6.20;;;9.80;99.90;;;;;;5033757;28;20049;-58
2022/05/05 02:33:15;;;;;;;10.02;5.57;;;9.80;99.90;;;;;;5035044;28;20531;-60
2022/05/05 02:35:43;;;;;;;12.93;5.57;;;9.80;99.90;;;;;;5035228;28;20041;-58
2022/05/05 02:40:56;;;;;;;12.88;5.53;;;9.80;99.90;;;;;;5033449;28;20033;-61
2022/05/05 02:43:24;;;;;;;14.30;5.32;;;9.70;99.90;;;;;;5034076;28;20052;-60
2022/05/05 02:45:52;;;;;;;11.10;5.82;;;9.80;99.90;;;;;;5034136;28;20045;-60
2022/05/05 02:48:20;;;;;;;12.93;5.28;;;9.80;99.90;;;;;;5034026;28;20045;-61
2022/05/05 02:50:47;;;;;;;11.57;5.70;;;9.80;99.90;;;;;;5034976;28;20053;-60
2022/05/05 02:56:01;;;;;;;9.90;5.13;;;9.80;99.90;;;;;;5019806;28;20042;-61
2022/05/05 02:58:29;;;;;;;12.10;5.63;;;9.80;99.90;;;;;;5033347;28;20049;-60
2022/05/05 03:00:56;;;;;;;12.13;5.20;;;9.70;99.90;;;;;;5031412;28;20041;-60
2022/05/05 03:03:24;;;;;;;11.85;5.47;;;9.70;99.90;;;;;;5033865;28;20050;-61
2022/05/05 03:05:52;;;;;;;12.98;6.10;;;9.80;99.90;;;;;;5033778;28;20045;-61
2022/05/05 03:08:19;;;;;;;13.38;6.05;;;9.80;99.90;;;;;;5034414;28;20064;-62
2022/05/05 03:10:47;;;;;;;10.43;5.35;;;9.70;99.90;;;;;;5033892;28;20037;-59
2022/05/05 03:13:15;;;;;;;14.90;6.18;;;9.70;99.90;;;;;;5033597;28;20050;-60
2022/05/05 03:15:43;;;;;;;13.02;5.65;;;9.70;99.90;;;;;;5032899;28;20045;-62
2022/05/05 03:18:11;;;;;;;17.35;6.30;;;9.70;99.90;;;;;;5033564;28;20045;-61
2022/05/05 03:20:39;;;;;;;18.58;5.78;;;9.70;99.90;;;;;;5028176;28;20038;-61
2022/05/05 03:23:06;;;;;;;12.10;5.63;;;9.70;99.90;;;;;;5028179;28;20508;-59
2022/05/05 03:25:34;;;;;;;11.13;5.53;;;9.70;99.90;;;;;;5033423;28;20045;-59
2022/05/05 03:28:02;;;;;;;11.50;5.35;;;9.70;99.90;;;;;;5032602;28;20049;-59
2022/05/05 03:30:29;;;;;;;13.25;5.88;;;9.70;99.90;;;;;;5033964;28;20056;-58
2022/05/05 03:32:57;;;;;;;11.93;5.55;;;9.70;99.90;;;;;;5033037;28;20057;-57
2022/05/05 03:35:24;;;;;;;16.05;5.15;;;9.70;99.90;;;;;;5034444;28;20045;-57
2022/05/05 03:37:52;;;;;;;15.60;6.07;;;9.70;99.90;;;;;;5034148;28;20045;-59
2022/05/05 03:40:20;;;;;;;9.45;4.88;;;9.60;99.90;;;;;;5032962;28;20045;-58
2022/05/05 03:42:47;;;;;;;12.48;5.65;;;9.60;99.90;;;;;;5034013;28;20041;-58
2022/05/05 03:45:15;;;;;;;12.02;5.10;;;9.60;99.90;;;;;;5033898;28;20531;-58
2022/05/05 03:47:42;;;;;;;13.52;4.68;;;9.50;99.90;;;;;;5033872;28;20511;-58
2022/05/05 03:50:10;;;;;;;10.05;4.45;;;9.40;99.90;;;;;;5032647;28;20069;-58
2022/05/05 03:52:37;;;;;;;9.43;4.90;;;9.30;99.90;;;;;;5032549;28;20052;-57
2022/05/05 03:55:05;;;;;;;14.63;5.78;;;9.30;99.90;;;;;;5031174;28;20484;-58
2022/05/05 03:57:33;;;;;;;13.68;5.53;;;9.20;99.90;;;;;;5032765;28;20041;-58
2022/05/05 04:00:03;;;;;;;12.77;5.18;;;9.20;99.90;;;;;;5031864;28;20053;-58
2022/05/05 04:02:38;;;;;;;10.60;5.10;;;9.20;99.90;;;;;;5030818;28;20405;-58
2022/05/05 04:05:06;;;;;;;13.30;5.30;;;9.20;99.90;;;;;;5033473;28;20053;-59
2022/05/05 04:07:34;;;;;;;10.75;4.93;;;9.20;99.90;;;;;;5033521;28;20515;-58
2022/05/05 04:10:02;;;;;;;8.45;4.57;;;9.20;99.90;;;;;;5033381;28;20049;-58
2022/05/05 04:12:29;;;;;;;13.13;5.38;;;9.10;99.90;;;;;;5033364;28;20045;-59
2022/05/05 04:14:57;;;;;;;9.00;4.90;;;9.10;99.90;;;;;;5033468;28;20045;-59
2022/05/05 04:17:24;;;;;;;13.32;5.40;;;9.10;99.90;;;;;;5032155;28;20043;-58
2022/05/05 04:19:52;;;;;;;15.45;4.90;;;9.00;99.90;;;;;;5032247;28;20053;-58
2022/05/05 04:22:22;;;;;;;10.43;4.75;;;9.00;99.90;;;;;;5033261;28;20057;-58
2022/05/05 04:24:50;;;;;;;11.53;4.87;;;8.90;99.90;;;;;;5032198;28;20041;-58
2022/05/05 04:27:17;;;;;;;15.05;5.18;;;8.80;99.90;;;;;;5032383;28;20390;-59
2022/05/05 04:29:45;;;;;;;18.67;5.43;;;8.80;99.90;;;;;;5032103;28;20045;-58
2022/05/05 04:32:12;;;;;;;14.23;4.72;;;8.70;99.90;;;;;;5028454;28;20054;-58
2022/05/05 04:34:40;;;;;;;9.68;4.60;;;8.70;99.90;;;;;;5013354;28;20064;-58
2022/05/05 04:37:08;;;;;;;13.23;5.43;;;8.70;99.90;;;;;;5031154;28;20046;-59
2022/05/05 04:39:35;;;;;;;11.70;4.43;;;8.70;99.90;;;;;;5012967;28;20057;-59
2022/05/05 04:42:03;;;;;;;8.95;4.55;;;8.70;99.90;;;;;;5013169;28;20034;-58
2022/05/05 04:44:31;;;;;;;10.95;4.57;;;8.70;99.90;;;;;;5012971;28;20061;-59
2022/05/05 04:46:59;;;;;;;11.80;4.72;;;8.70;99.90;;;;;;5023376;28;20064;-59
2022/05/05 04:49:27;;;;;;;11.30;4.60;;;8.80;99.90;;;;;;5019412;28;20060;-59
2022/05/05 04:51:54;;;;;;;13.30;4.32;;;8.80;99.90;;;;;;5027566;28;20052;-60
2022/05/05 04:54:22;;;;;;;13.02;4.15;;;8.90;99.90;;;;;;5027395;28;20049;-59
2022/05/05 04:56:50;;;;;;;12.68;5.30;;;9.00;99.90;;;;;;5029158;28;20049;-59
2022/05/05 04:59:17;;;;;;;6.75;3.67;;;9.00;99.90;;;;;;5027758;28;20064;-58
2022/05/05 05:01:45;;;;;;;9.98;4.43;;;9.00;99.90;;;;;;5025829;28;20041;-59
2022/05/05 05:04:16;;;;;;;9.68;5.07;;;9.10;99.90;;;;;;5024841;28;20041;-61
2022/05/05 05:06:43;;;;;;;15.55;4.60;;;9.20;99.90;;;;;;5026524;28;20041;-61
2022/05/05 05:09:11;;;;;;;15.05;5.03;;;9.20;99.90;;;;;;5028483;28;20489;-60
2022/05/05 05:11:39;;;;;;;9.23;3.65;;;9.30;99.90;;;;;;5027586;28;20128;-60
2022/05/05 05:14:06;;;;;;;11.88;4.50;;;9.30;99.90;;;;;;5026017;28;20048;-59
2022/05/05 05:16:34;;;;;;;13.13;5.03;;;9.40;99.90;;;;;;5028732;28;20049;-60
2022/05/05 05:19:10;;;;;;;8.52;3.95;;;9.50;99.90;;;;;;5030194;28;20499;-62
2022/05/05 05:21:43;;;;;;;8.65;4.50;;;9.50;99.90;;;;;;5018202;28;20037;-59
2022/05/05 05:24:11;;;;;;;9.40;4.55;;;9.50;99.90;;;;;;5026688;28;20452;-59
2022/05/05 05:26:39;;;;;;;9.02;3.75;;;9.60;99.90;;;;;;5015142;28;20485;-58
2022/05/05 05:29:06;;;;;;;7.28;3.63;;;9.60;99.90;;;;;;5029293;28;20053;-60
2022/05/05 05:31:34;;;;;;;8.07;4.05;;;9.70;99.90;;;;;;5021474;28;20412;-60
2022/05/05 05:34:02;;;;;;;15.32;3.72;;;9.70;99.90;;;;;;5024634;28;20614;-60
2022/05/05 05:36:29;;;;;;;11.10;4.10;;;9.80;99.90;;;;;;5025556;28;20049;-61
2022/05/05 05:38:57;;;;;;;10.50;3.78;;;9.80;99.90;;;;;;5024263;28;20049;-61
2022/05/05 05:41:24;;;;;;;14.50;4.47;;;9.80;99.90;;;;;;5024764;28;20065;-60
2022/05/05 05:43:52;;;;;;;9.98;3.83;;;10.00;99.90;;;;;;5024529;28;20053;-59
2022/05/05 05:46:20;;;;;;;11.13;4.47;;;10.00;99.90;;;;;;5023462;28;20958;-62
2022/05/05 05:48:48;;;;;;;11.23;4.15;;;10.00;99.90;;;;;;5006141;28;20046;-60
2022/05/05 05:51:16;;;;;;;9.70;4.60;;;10.10;99.90;;;;;;5010104;28;20038;-62
2022/05/05 05:53:43;;;;;;;9.00;4.43;;;10.10;99.90;;;;;;5027438;28;20049;-61
2022/05/05 05:56:11;;;;;;;9.30;4.30;;;10.10;99.90;;;;;;5029798;28;20053;-60
2022/05/05 05:58:39;;;;;;;12.05;4.85;;;10.20;99.90;;;;;;5028386;28;20049;-61
2022/05/05 06:01:07;;;;;;;13.82;6.20;;;10.20;99.90;;;;;;5025422;28;20052;-60
2022/05/05 06:06:22;;;;;;;11.98;5.43;;;10.30;99.90;;;;;;5008182;28;20054;-60
2022/05/05 06:08:50;;;;;;;15.95;5.50;;;10.30;99.90;;;;;;5021696;28;20069;-60
2022/05/05 06:11:19;;;;;;;16.85;5.47;;;10.30;99.90;;;;;;5026368;28;20485;-59
2022/05/05 06:13:48;;;;;;;14.60;5.80;;;10.30;99.90;;;;;;5025821;28;20049;-60
2022/05/05 06:16:15;;;;;;;12.63;5.10;;;10.30;99.90;;;;;;5025115;28;20045;-58
2022/05/05 06:18:43;;;;;;;13.95;4.78;;;10.30;99.90;;;;;;5026298;28;20207;-58
2022/05/05 06:21:11;;;;;;;10.20;4.45;;;10.40;99.90;;;;;;5027788;28;20038;-58
2022/05/05 06:23:38;;;;;;;10.50;4.45;;;10.40;99.90;;;;;;5020412;28;20069;-58
2022/05/05 06:26:06;;;;;;;12.13;4.47;;;10.50;99.90;;;;;;5029565;28;20049;-58
2022/05/05 06:28:34;;;;;;;13.88;5.13;;;10.50;99.90;;;;;;5025624;28;20049;-60
2022/05/05 06:31:04;;;;;;;12.25;4.53;;;10.60;99.90;;;;;;5025917;28;20049;-59
2022/05/05 06:33:32;;;;;;;8.07;3.70;;;10.70;99.90;;;;;;5020600;28;20497;-58
2022/05/05 06:36:00;;;;;;;10.60;4.95;;;10.70;99.90;;;;;;5024130;28;20041;-59
2022/05/05 06:38:28;;;;;;;11.60;5.18;;;10.80;99.90;;;;;;5026947;28;20049;-62
2022/05/05 06:40:55;;;;;;;14.35;5.97;;;10.80;99.90;;;;;;5010933;28;20053;-59
2022/05/05 06:43:23;;;;;;;15.60;5.47;;;10.90;99.90;;;;;;5023908;28;20049;-59
2022/05/05 06:45:52;;;;;;;17.02;6.57;;;11.00;99.90;;;;;;5026886;28;20053;-59
2022/05/05 06:48:19;;;;;;;13.63;6.00;;;11.00;99.90;;;;;;5006451;28;20046;-60
2022/05/05 06:50:47;;;;;;;14.52;6.30;;;11.10;99.90;;;;;;5025289;28;20056;-58
2022/05/05 06:53:15;;;;;;;13.45;6.38;;;11.10;99.90;;;;;;5021637;28;20713;-59
2022/05/05 06:55:43;;;;;;;15.02;7.03;;;11.20;99.90;;;;;;5028267;28;20053;-59
2022/05/05 06:58:10;;;;;;;16.02;7.75;;;11.20;99.90;;;;;;5027948;28;20046;-59
2022/05/05 07:03:25;;;;;;;15.50;6.07;;;11.30;99.90;;;;;;5023808;28;20049;-58
2022/05/05 07:05:53;;;;;;;10.18;5.35;;;11.40;99.90;;;;;;5027302;28;20485;-59
2022/05/05 07:08:21;;;;;;;18.13;6.00;;;11.40;99.90;;;;;;5031387;28;20052;-59
2022/05/05 07:10:52;;;;;;;15.93;5.63;;;11.50;99.90;;;;;;5031335;28;20045;-59
2022/05/05 07:13:24;;;;;;;12.77;4.68;;;11.50;99.90;;;;;;5025454;28;20041;-59
2022/05/05 07:15:52;;;;;;;10.25;4.80;;;11.60;99.90;;;;;;5026644;28;20044;-60
2022/05/05 07:18:20;;;;;;;6.88;4.20;;;11.60;99.90;;;;;;5026733;28;20054;-59
2022/05/05 07:20:48;;;;;;;11.88;5.35;;;11.70;99.90;;;;;;5028388;28;20056;-59
2022/05/05 07:23:15;;;;;;;12.80;5.50;;;11.70;99.90;;;;;;5031016;28;20052;-59
2022/05/05 07:25:43;;;;;;;18.55;5.75;;;11.70;99.90;;;;;;5026799;28;20049;-60
2022/05/05 07:28:13;;;;;;;12.27;5.93;;;11.80;99.90;;;;;;5030986;28;20056;-58
2022/05/05 07:30:41;;;;;;;12.90;5.80;;;11.80;99.90;;;;;;5031539;28;20045;-59
2022/05/05 07:33:09;;;;;;;14.65;6.38;;;11.90;99.90;;;;;;5057009;28;20046;-59
2022/05/05 07:35:39;;;;;;;16.80;6.35;;;12.00;99.90;;;;;;5026327;28;20401;-59
2022/05/05 07:38:07;;;;;;;16.10;6.60;;;12.00;99.90;;;;;;5026200;28;20500;-58
2022/05/05 07:40:35;;;;;;;13.27;6.95;;;12.00;99.90;;;;;;5029751;28;20049;-60
2022/05/05 07:43:02;;;;;;;19.10;6.90;;;12.00;99.90;;;;;;5014813;28;20042;-58
2022/05/05 07:45:30;;;;;;;12.07;6.05;;;12.10;99.90;;;;;;5022967;28;20052;-61
2022/05/05 07:48:00;;;;;;;11.88;6.60;;;12.20;99.90;;;;;;5031116;28;20397;-59
2022/05/05 07:50:28;;;;;;;;;;;12.30;99.90;;;;;;5029958;28;20489;-59
2022/05/05 07:52:56;;;;;;;15.40;6.18;;;12.30;99.90;;;;;;5030933;28;19932;-60
2022/05/05 07:55:23;;;;;;;19.40;6.30;;;12.40;99.90;;;;;;5032153;28;20048;-58
2022/05/05 07:57:51;;;;;;;10.63;5.55;;;12.40;99.90;;;;;;5021811;28;20041;-60
2022/05/05 08:00:19;;;;;;;11.95;6.18;;;12.50;99.90;;;;;;5030362;28;20049;-60
2022/05/05 08:02:47;;;;;;;13.25;5.28;;;12.60;99.90;;;;;;5028013;28;20056;-61
2022/05/05 08:05:15;;;;;;;11.63;4.97;;;12.60;99.90;;;;;;5019158;28;20417;-61
2022/05/05 08:07:49;;;;;;;7.90;4.72;;;12.70;99.90;;;;;;5023825;28;20607;-59
2022/05/05 08:10:18;;;;;;;9.65;5.32;;;12.80;99.90;;;;;;5028967;28;20049;-61
2022/05/05 08:12:47;;;;;;;7.13;4.40;;;12.90;99.90;;;;;;5029812;28;20583;-60
2022/05/05 08:15:16;;;;;;;10.02;4.68;;;12.90;99.90;;;;;;5031278;28;20072;-59
2022/05/05 08:17:45;;;;;;;14.73;5.10;;;13.10;99.90;;;;;;5030644;28;20303;-63
2022/05/05 08:20:15;;;;;;;9.30;4.97;;;13.20;99.90;;;;;;5024313;28;20049;-63
2022/05/05 08:22:42;;;;;;;11.95;4.85;;;13.40;99.90;;;;;;5027604;28;20049;-64
2022/05/05 08:30:43;;;;;;;13.32;5.40;;;13.90;99.90;;;;;;5020141;28;20058;-60
2022/05/05 08:33:11;;;;;;;11.35;4.65;;;14.10;99.90;;;;;;5010818;28;20072;-59
2022/05/05 08:35:41;;;;;;;17.05;5.22;;;14.20;99.90;;;;;;5023595;28;20053;-60
2022/05/05 08:38:09;;;;;;;9.57;4.80;;;14.30;99.90;;;;;;5022997;28;20049;-59
2022/05/05 08:40:41;;;;;;;;;;;14.50;99.90;;;;;;5025393;28;20041;-59
2022/05/05 08:43:10;;;;;;;12.60;6.53;;;14.60;99.90;;;;;;5030023;28;20287;-59
2022/05/05 08:45:38;;;;;;;17.38;7.63;;;14.70;99.90;;;;;;5029638;28;20058;-59
2022/05/05 08:48:08;;;;;;;15.60;6.93;;;14.80;99.90;;;;;;5029540;28;20037;-59
2022/05/05 08:50:37;;;;;;;16.23;7.93;;;14.90;99.90;;;;;;5022420;28;20053;-60
2022/05/05 08:53:06;;;;;;;15.03;8.17;;;14.90;99.90;;;;;;5024411;28;20053;-59
2022/05/05 08:55:34;;;;;;;22.00;8.80;;;14.90;99.90;;;;;;5028375;28;20038;-60
2022/05/05 08:58:03;;;;;;;27.42;10.02;;;14.80;99.90;;;;;;5029984;28;20049;-60
2022/05/05 09:00:31;;;;;;;26.90;10.95;;;14.90;99.90;;;;;;5031518;28;20046;-60
2022/05/05 09:03:00;;;;;;;27.73;12.15;;;14.90;99.90;;;;;;5030891;28;20052;-61
2022/05/05 09:05:43;;;;;;;25.60;11.10;;;15.00;99.90;;;;;;5030849;28;20401;-63
2022/05/05 09:08:23;;;;;;;29.95;12.25;;;15.10;99.90;;;;;;5026555;28;20045;-62
2022/05/05 09:10:54;;;;;;;24.15;11.18;;;15.10;99.90;;;;;;5029053;28;20049;-63
2022/05/05 09:13:27;;;;;;;28.77;11.75;;;15.20;99.90;;;;;;5030578;28;20056;-60
2022/05/05 09:15:56;;;;;;;26.30;10.38;;;15.30;99.90;;;;;;5023475;28;20524;-64
2022/05/05 09:18:31;;;;;;;24.63;9.55;;;15.30;99.90;;;;;;5020774;28;20041;-63
2022/05/05 09:21:02;;;;;;;25.67;9.07;;;15.30;99.90;;;;;;5030940;28;20052;-60
2022/05/05 09:23:31;;;;;;;21.25;8.95;;;15.30;99.90;;;;;;5024383;28;20060;-63
2022/05/05 09:26:00;;;;;;;17.88;8.48;;;15.30;99.90;;;;;;5027417;28;20046;-63
2022/05/05 09:28:32;;;;;;;17.98;8.65;;;15.30;99.90;;;;;;5020678;28;20041;-63
2022/05/05 09:31:08;;;;;;;18.48;8.60;;;15.30;99.90;;;;;;5022703;28;20658;-61
2022/05/05 09:33:42;;;;;;;21.88;8.35;;;15.30;99.90;;;;;;5025278;28;20049;-60
2022/05/05 09:36:14;;;;;;;19.85;9.50;;;15.30;99.90;;;;;;5029395;28;20045;-60
2022/05/05 09:38:48;;;;;;;23.58;9.98;;;15.30;99.90;;;;;;5029535;28;20049;-60
2022/05/05 09:41:15;;;;;;;19.80;9.30;;;15.20;99.90;;;;;;5028882;28;20041;-60
2022/05/05 09:43:43;;;;;;;22.48;9.30;;;15.20;99.90;;;;;;5023833;28;20053;-60
2022/05/05 09:46:23;;;;;;;21.75;10.30;;;15.20;99.90;;;;;;5022135;28;20053;-60
2022/05/05 09:48:51;;;;;;;21.85;9.63;;;15.20;99.90;;;;;;5028551;28;20049;-59
2022/05/05 09:51:20;;;;;;;18.85;9.90;;;15.20;99.90;;;;;;5012210;28;20049;-59
2022/05/05 09:59:33;;;;;;;20.20;9.75;;;15.60;99.90;;;;;;5022905;28;20397;-59
2022/05/05 10:02:12;;;;;;;26.08;10.48;;;15.70;99.90;;;;;;5028128;28;20046;-60
2022/05/05 10:04:45;;;;;;;27.42;10.65;;;15.80;99.90;;;;;;5030970;28;20045;-59
2022/05/05 10:07:13;;;;;;;21.92;10.82;;;15.90;99.90;;;;;;5028427;28;20037;-60
2022/05/05 10:09:43;;;;;;;19.15;10.50;;;15.90;99.90;;;;;;5027678;28;20045;-59
2022/05/05 10:12:11;;;;;;;24.38;11.32;;;15.90;99.90;;;;;;5027568;28;20060;-60
2022/05/05 10:14:39;;;;;;;22.38;10.98;;;15.90;99.90;;;;;;5021354;28;20425;-60
2022/05/05 10:17:08;;;;;;;18.92;11.73;;;15.90;99.90;;;;;;5027295;28;20065;-61
2022/05/05 10:19:37;;;;;;;22.73;12.15;;;16.00;99.90;;;;;;5022241;28;20433;-59
2022/05/05 10:22:11;;;;;;;19.63;12.32;;;16.30;99.90;;;;;;5027436;28;20038;-63
2022/05/05 10:24:45;;;;;;;18.33;11.40;;;16.50;99.90;;;;;;5028637;28;20049;-60
2022/05/05 10:27:13;;;;;;;20.48;10.57;;;16.70;99.90;;;;;;5029768;28;20065;-61
2022/05/05 10:29:42;;;;;;;18.08;10.10;;;16.80;99.90;;;;;;5020386;28;20773;-60
2022/05/05 10:32:20;;;;;;;17.73;9.30;;;17.00;99.90;;;;;;5028313;28;20049;-60
2022/05/05 10:34:54;;;;;;;22.95;9.20;;;17.30;99.90;;;;;;5028617;28;20114;-64
2022/05/05 10:37:33;;;;;;;17.17;8.85;;;17.60;99.90;;;;;;5026668;28;20050;-64
2022/05/05 10:40:09;;;;;;;13.43;7.65;;;17.60;99.90;;;;;;5033133;28;20048;-63
2022/05/05 10:42:41;;;;;;;12.25;7.28;;;17.60;99.90;;;;;;5032537;28;20117;-63
2022/05/05 10:45:30;;;;;;;15.52;6.93;;;17.60;99.90;;;;;;5030122;28;20056;-63
2022/05/05 10:47:59;;;;;;;19.80;6.38;;;17.70;99.90;;;;;;5022506;28;20519;-63
2022/05/05 10:51:04;;;;;;;17.85;5.97;;;17.70;99.90;;;;;;5033200;28;20053;-64
2022/05/05 10:53:40;;;;;;;9.10;5.78;;;17.80;99.90;;;;;;4980695;28;20053;-62
2022/05/05 10:56:29;;;;;;;10.20;5.47;;;17.80;99.90;;;;;;5031053;28;20052;-61
2022/05/05 10:58:59;;;;;;;8.75;5.53;;;17.80;99.90;;;;;;5026559;28;20044;-61
2022/05/05 11:01:29;;;;;;;7.25;4.60;;;17.90;99.90;;;;;;5018005;28;20502;-60
2022/05/05 11:04:07;;;;;;;8.27;5.00;;;18.00;99.90;;;;;;5033091;28;20499;-59
2022/05/05 11:06:38;;;;;;;12.63;4.75;;;18.10;99.90;;;;;;5015375;28;20405;-60
2022/05/05 11:09:06;;;;;;;14.57;5.22;;;18.20;99.90;;;;;;5019071;28;20497;-59
2022/05/05 11:11:40;;;;;;;11.70;6.10;;;18.30;99.90;;;;;;5029645;28;20049;-60
2022/05/05 11:23:12;;;;;;;10.10;5.38;;;18.30;99.90;;;;;;5032782;28;20078;-60
2022/05/05 11:25:42;;;;;;;11.85;5.40;;;18.40;99.90;;;;;;5031276;28;20048;-60
2022/05/05 11:28:11;;;;;;;11.02;4.80;;;18.50;99.90;;;;;;5032284;28;20038;-60
2022/05/05 11:30:41;;;;;;;16.20;6.07;;;18.60;99.90;;;;;;5030555;28;20053;-60
2022/05/05 11:33:09;;;;;;;16.98;5.00;;;18.50;99.90;;;;;;5027669;28;20501;-61
2022/05/05 11:35:55;;;;;;;8.32;3.97;;;18.50;99.90;;;;;;5030021;28;20537;-60
2022/05/05 11:38:26;;;;;;;12.10;4.47;;;18.40;99.90;;;;;;5031652;28;20048;-60
2022/05/05 11:41:04;;;;;;;10.68;4.38;;;18.40;99.90;;;;;;5031830;28;20045;-60
2022/05/05 11:46:20;;;;;;;6.93;4.40;;;18.90;99.90;;;;;;5024392;28;20041;-60
2022/05/05 11:48:56;;;;;;;8.18;4.50;;;19.20;99.90;;;;;;5029577;28;20045;-60
2022/05/05 11:51:32;;;;;;;11.80;5.18;;;19.50;99.90;;;;;;5030799;28;20042;-60
2022/05/05 11:54:02;;;;;;;9.45;4.82;;;19.80;99.90;;;;;;5032154;28;20046;-60
2022/05/05 11:56:30;;;;;;;10.35;5.40;;;20.00;99.90;;;;;;5031591;28;20049;-60
2022/05/05 12:02:12;;;;;;;13.13;5.63;;;20.00;99.90;;;;;;5023902;28;20061;-60
2022/05/05 12:04:52;;;;;;;10.57;6.22;;;20.00;99.90;;;;;;5012355;28;20050;-61
2022/05/05 12:07:23;;;;;;;12.38;6.30;;;20.20;99.90;;;;;;5012111;28;20049;-60
2022/05/05 12:09:53;;;;;;;9.57;6.25;;;20.30;99.90;;;;;;5031020;28;20068;-60
2022/05/05 12:12:25;;;;;;;13.25;5.82;;;20.40;99.90;;;;;;5022735;28;20414;-60
2022/05/05 12:15:02;;;;;;;;;;;20.30;99.90;;;;;;5033926;28;20060;-60
2022/05/05 12:17:39;;;;;;;17.88;8.95;;;20.30;99.90;;;;;;5043769;28;19920;-60
2022/05/05 12:20:08;;;;;;;19.48;9.82;;;20.20;99.90;;;;;;5028177;28;20053;-60
2022/05/05 12:22:42;;;;;;;13.82;7.88;;;20.40;99.90;;;;;;5031540;28;20053;-62
2022/05/05 12:25:14;;;;;;;14.20;7.80;;;20.80;99.90;;;;;;5035464;28;20052;-60
2022/05/05 12:28:02;;;;;;;9.45;4.40;;;21.10;99.90;;;;;;5027240;28;20045;-61
2022/05/05 12:30:42;;;;;;;8.55;6.13;;;21.50;99.90;;;;;;5031561;28;20052;-60
2022/05/05 12:33:11;;;;;;;9.57;5.07;;;21.70;99.90;;;;;;5026349;28;20425;-61
2022/05/05 12:35:41;;;;;;;11.93;5.53;;;21.70;99.90;;;;;;5011463;28;20319;-60
2022/05/05 12:38:15;;;;;;;10.70;6.38;;;21.60;99.90;;;;;;5017021;28;20044;-60
2022/05/05 12:40:46;;;;;;;13.93;6.70;;;21.60;99.90;;;;;;5029375;28;20050;-60
2022/05/05 12:43:17;;;;;;;9.77;5.20;;;21.80;99.90;;;;;;5031211;28;20037;-60
2022/05/05 12:45:47;;;;;;;10.75;4.28;;;22.10;99.90;;;;;;5031171;28;20046;-60
2022/05/05 12:48:15;;;;;;;;;;;22.30;99.10;;;;;;5044691;28;20507;-60
2022/05/05 12:50:51;;;;;;;8.57;4.70;;;22.40;98.50;;;;;;5029482;28;20361;-60
2022/05/05 13:01:54;;;;;;;12.73;6.47;;;23.10;99.20;;;;;;5033664;28;20078;-61
2022/05/05 13:04:23;;;;;;;13.57;5.32;;;23.30;98.30;;;;;;5033439;28;20042;-64
2022/05/05 13:06:54;;;;;;;11.07;6.75;;;23.20;96.00;;;;;;5029128;28;20045;-65
2022/05/05 13:09:22;;;;;;;11.32;7.78;;;23.20;96.60;;;;;;5029264;28;20060;-65
2022/05/05 13:11:52;;;;;;;13.85;8.10;;;23.30;96.50;;;;;;5030721;28;20041;-63
2022/05/05 13:14:22;;;;;;;10.80;6.40;;;23.30;96.40;;;;;;5031987;28;20396;-65
2022/05/05 13:16:50;;;;;;;12.00;7.13;;;23.60;97.30;;;;;;5010907;28;20402;-64
2022/05/05 13:19:18;;;;;;;10.70;6.28;;;23.70;95.30;;;;;;5015685;28;20402;-62
2022/05/05 13:21:48;;;;;;;;;;;23.80;95.70;;;;;;5025376;28;20037;-66
2022/05/05 13:24:16;;;;;;;7.55;4.78;;;24.00;94.90;;;;;;5027660;28;19924;-64
2022/05/05 13:26:46;;;;;;;15.25;5.80;;;23.90;93.90;;;;;;5030355;28;20049;-64
2022/05/05 13:29:14;;;;;;;11.20;6.82;;;23.90;94.00;;;;;;5028176;28;20049;-62
2022/05/05 13:31:42;;;;;;;12.60;5.70;;;23.70;92.00;;;;;;5029612;28;20495;-60
2022/05/05 13:34:09;;;;;;;9.60;4.80;;;23.30;93.20;;;;;;5019188;28;20054;-62
2022/05/05 13:36:38;;;;;;;8.35;3.97;;;23.00;93.50;;;;;;5013865;28;20053;-61
2022/05/05 13:39:12;;;;;;;6.90;3.83;;;22.90;94.10;;;;;;5026311;28;20041;-60
2022/05/05 13:41:40;;;;;;;9.43;4.07;;;22.90;95.00;;;;;;5025612;28;20037;-60
2022/05/05 13:44:09;;;;;;;8.25;3.72;;;23.00;95.10;;;;;;5027624;28;20050;-62
2022/05/05 13:46:38;;;;;;;5.40;3.78;;;23.10;92.70;;;;;;5026809;28;20045;-60
2022/05/05 13:49:06;;;;;;;8.80;4.10;;;23.30;93.70;;;;;;5026789;28;20060;-60